AAR8911 RKSS-RKPC
Flight info
| Callsign | AAR8911 |
|---|---|
| Flight time | 0h 48m |
| Altitude | 24000 |
| Route | BULTI2T BULTI Y711 DOTOL DOTOL2P |
| Aircraft | A321/M-SDE2E3FGHIRWXY/LB1 |
Departure
| Time | 2025-09-08 13:00 |
|---|---|
| Airport | Gimpo International Airport (RKSS) |
Arrival
| Time | 2025-09-08 13:49 |
|---|---|
| Airport | Jeju International Airport (RKPC) |
| Time | Latitude | Longitude | Altitude | Speed | Heading |
|---|---|---|---|---|---|
| 2025-09-08 12:36 | 37.55611 | 126.80121 | 67 ft | 0 kts | 225° |
| 2025-09-08 12:52 | 37.55608 | 126.80118 | 67 ft | 0 kts | 225° |
| 2025-09-08 12:55 | 37.55607 | 126.80117 | 67 ft | 2 kts | 225° |
| 2025-09-08 12:55 | 37.55555 | 126.80063 | 61 ft | 8 kts | 198° |
| 2025-09-08 12:56 | 37.55443 | 126.80169 | 62 ft | 11 kts | 135° |
| 2025-09-08 12:56 | 37.55319 | 126.80327 | 64 ft | 14 kts | 134° |
| 2025-09-08 12:57 | 37.55194 | 126.80485 | 61 ft | 17 kts | 134° |
| 2025-09-08 12:57 | 37.55019 | 126.80708 | 59 ft | 19 kts | 138° |
| 2025-09-08 12:58 | 37.54876 | 126.80818 | 61 ft | 11 kts | 212° |
| 2025-09-08 12:58 | 37.54797 | 126.80695 | 56 ft | 5 kts | 281° |
| 2025-09-08 12:59 | 37.54957 | 126.80485 | 58 ft | 63 kts | 315° |
| 2025-09-08 12:59 | 37.56230 | 126.78882 | 110 ft | 182 kts | 315° |
| 2025-09-08 13:00 | 37.58027 | 126.76531 | 1601 ft | 185 kts | 314° |
| 2025-09-08 13:00 | 37.59753 | 126.74188 | 2980 ft | 180 kts | 314° |
| 2025-09-08 13:01 | 37.61596 | 126.71722 | 3711 ft | 214 kts | 314° |
| 2025-09-08 13:01 | 37.62464 | 126.67922 | 4270 ft | 264 kts | 250° |
| 2025-09-08 13:01 | 37.61513 | 126.65882 | 4844 ft | 275 kts | 232° |
| 2025-09-08 13:02 | 37.58816 | 126.62391 | 6315 ft | 280 kts | 223° |
| 2025-09-08 13:03 | 37.53752 | 126.59023 | 8749 ft | 285 kts | 186° |
| 2025-09-08 13:03 | 37.49787 | 126.58536 | 10257 ft | 292 kts | 188° |
| 2025-09-08 13:04 | 37.45429 | 126.57923 | 10681 ft | 335 kts | 189° |
| 2025-09-08 13:04 | 37.40609 | 126.57415 | 11966 ft | 347 kts | 181° |
| 2025-09-08 13:05 | 37.35713 | 126.58546 | 13349 ft | 356 kts | 173° |
| 2025-09-08 13:05 | 37.30837 | 126.59905 | 14599 ft | 362 kts | 172° |
| 2025-09-08 13:06 | 37.25918 | 126.61501 | 15786 ft | 368 kts | 171° |
| 2025-09-08 13:06 | 37.23443 | 126.62346 | 16351 ft | 371 kts | 171° |
| 2025-09-08 13:07 | 37.15884 | 126.64894 | 17963 ft | 380 kts | 172° |
| 2025-09-08 13:07 | 37.10705 | 126.66592 | 18861 ft | 388 kts | 173° |
| 2025-09-08 13:08 | 37.05433 | 126.68319 | 19713 ft | 395 kts | 173° |
| 2025-09-08 13:08 | 37.00062 | 126.70075 | 20592 ft | 402 kts | 173° |
| 2025-09-08 13:09 | 36.94602 | 126.71863 | 21465 ft | 409 kts | 173° |
| 2025-09-08 13:09 | 36.89076 | 126.73877 | 22293 ft | 422 kts | 165° |
| 2025-09-08 13:09 | 36.86346 | 126.75284 | 22684 ft | 426 kts | 165° |
| 2025-09-08 13:10 | 36.80833 | 126.78127 | 23466 ft | 431 kts | 165° |
| 2025-09-08 13:11 | 36.72420 | 126.82087 | 23959 ft | 423 kts | 174° |
| 2025-09-08 13:11 | 36.66662 | 126.82716 | 23962 ft | 413 kts | 185° |
| 2025-09-08 13:12 | 36.60937 | 126.82922 | 23961 ft | 414 kts | 185° |
| 2025-09-08 13:12 | 36.55165 | 126.83151 | 23960 ft | 415 kts | 185° |
| 2025-09-08 13:13 | 36.49378 | 126.83385 | 23957 ft | 415 kts | 185° |
| 2025-09-08 13:13 | 36.43602 | 126.83601 | 23951 ft | 415 kts | 185° |
| 2025-09-08 13:13 | 36.40723 | 126.83710 | 23859 ft | 409 kts | 185° |
| 2025-09-08 13:14 | 36.35224 | 126.83425 | 23951 ft | 395 kts | 192° |
| 2025-09-08 13:15 | 36.27013 | 126.82510 | 23947 ft | 395 kts | 192° |
| 2025-09-08 13:15 | 36.21533 | 126.81910 | 23953 ft | 395 kts | 192° |
| 2025-09-08 13:16 | 36.16062 | 126.81325 | 23950 ft | 395 kts | 192° |
| 2025-09-08 13:16 | 36.10590 | 126.80731 | 23950 ft | 394 kts | 192° |
| 2025-09-08 13:16 | 36.07862 | 126.80433 | 23950 ft | 394 kts | 192° |
| 2025-09-08 13:17 | 36.02433 | 126.79842 | 23949 ft | 394 kts | 192° |
| 2025-09-08 13:17 | 35.96971 | 126.79252 | 23950 ft | 394 kts | 192° |
| 2025-09-08 13:18 | 35.91501 | 126.78661 | 23952 ft | 394 kts | 192° |
| 2025-09-08 13:19 | 35.83293 | 126.77769 | 23952 ft | 395 kts | 192° |
| 2025-09-08 13:19 | 35.77815 | 126.77168 | 23951 ft | 395 kts | 192° |
| 2025-09-08 13:20 | 35.72341 | 126.76576 | 23952 ft | 395 kts | 191° |
| 2025-09-08 13:20 | 35.66891 | 126.75994 | 23953 ft | 396 kts | 191° |
| 2025-09-08 13:21 | 35.61395 | 126.75411 | 23949 ft | 397 kts | 191° |
| 2025-09-08 13:21 | 35.58645 | 126.75115 | 23952 ft | 397 kts | 191° |
| 2025-09-08 13:21 | 35.53131 | 126.74518 | 23956 ft | 398 kts | 191° |
| 2025-09-08 13:22 | 35.47599 | 126.73923 | 23953 ft | 400 kts | 191° |
| 2025-09-08 13:23 | 35.39274 | 126.73031 | 23951 ft | 401 kts | 190° |
| 2025-09-08 13:23 | 35.33714 | 126.72440 | 23949 ft | 401 kts | 190° |
| 2025-09-08 13:24 | 35.28144 | 126.71846 | 23949 ft | 402 kts | 190° |
| 2025-09-08 13:24 | 35.22593 | 126.71249 | 23950 ft | 403 kts | 190° |
| 2025-09-08 13:25 | 35.16999 | 126.70654 | 23950 ft | 404 kts | 190° |
| 2025-09-08 13:25 | 35.14195 | 126.70354 | 23952 ft | 404 kts | 190° |
| 2025-09-08 13:25 | 35.08573 | 126.69754 | 23955 ft | 405 kts | 190° |
| 2025-09-08 13:26 | 35.02945 | 126.69159 | 23954 ft | 407 kts | 190° |
| 2025-09-08 13:27 | 34.94481 | 126.68262 | 23956 ft | 407 kts | 189° |
| 2025-09-08 13:27 | 34.88838 | 126.67663 | 23955 ft | 407 kts | 189° |
| 2025-09-08 13:28 | 34.83224 | 126.67075 | 23952 ft | 407 kts | 189° |
| 2025-09-08 13:28 | 34.77575 | 126.66482 | 23949 ft | 408 kts | 189° |
| 2025-09-08 13:29 | 34.71925 | 126.65885 | 23942 ft | 408 kts | 189° |
| 2025-09-08 13:29 | 34.69093 | 126.65586 | 23938 ft | 408 kts | 189° |
| 2025-09-08 13:29 | 34.63440 | 126.64993 | 23939 ft | 408 kts | 189° |
| 2025-09-08 13:30 | 34.57792 | 126.64398 | 23609 ft | 405 kts | 189° |
| 2025-09-08 13:31 | 34.51258 | 126.63690 | 23024 ft | 401 kts | 189° |
| 2025-09-08 13:31 | 34.44809 | 126.63019 | 22426 ft | 395 kts | 189° |
| 2025-09-08 13:32 | 34.40276 | 126.62559 | 22006 ft | 392 kts | 189° |
| 2025-09-08 13:32 | 34.34859 | 126.62001 | 21804 ft | 390 kts | 189° |
| 2025-09-08 13:33 | 34.29429 | 126.61438 | 20888 ft | 391 kts | 189° |
| 2025-09-08 13:33 | 34.26735 | 126.61128 | 20422 ft | 386 kts | 192° |
| 2025-09-08 13:33 | 34.21731 | 126.59200 | 19470 ft | 374 kts | 206° |
| 2025-09-08 13:34 | 34.16933 | 126.56827 | 18500 ft | 370 kts | 205° |
| 2025-09-08 13:35 | 34.09851 | 126.53352 | 16972 ft | 360 kts | 205° |
| 2025-09-08 13:35 | 34.05254 | 126.51101 | 16004 ft | 353 kts | 205° |
| 2025-09-08 13:36 | 34.00753 | 126.48895 | 15058 ft | 346 kts | 204° |
| 2025-09-08 13:36 | 33.96337 | 126.46728 | 14170 ft | 337 kts | 204° |
| 2025-09-08 13:37 | 33.92040 | 126.44625 | 13231 ft | 330 kts | 204° |
| 2025-09-08 13:37 | 33.89921 | 126.43591 | 12770 ft | 326 kts | 204° |
| 2025-09-08 13:37 | 33.85765 | 126.41560 | 11876 ft | 319 kts | 204° |
| 2025-09-08 13:38 | 33.81706 | 126.39574 | 11012 ft | 314 kts | 204° |
| 2025-09-08 13:39 | 33.75806 | 126.36699 | 10259 ft | 289 kts | 204° |
| 2025-09-08 13:39 | 33.72175 | 126.34935 | 9996 ft | 278 kts | 205° |
| 2025-09-08 13:40 | 33.68574 | 126.33184 | 9408 ft | 279 kts | 205° |
| 2025-09-08 13:40 | 33.64990 | 126.31440 | 8666 ft | 276 kts | 204° |
| 2025-09-08 13:40 | 33.63211 | 126.30577 | 8293 ft | 275 kts | 204° |
| 2025-09-08 13:41 | 33.57920 | 126.28010 | 7203 ft | 272 kts | 204° |
| 2025-09-08 13:41 | 33.56168 | 126.27160 | 6843 ft | 271 kts | 204° |
| 2025-09-08 13:42 | 33.52672 | 126.25464 | 6107 ft | 271 kts | 204° |
| 2025-09-08 13:43 | 33.47485 | 126.23089 | 5026 ft | 255 kts | 188° |
| 2025-09-08 13:43 | 33.44460 | 126.24804 | 4314 ft | 259 kts | 124° |
| 2025-09-08 13:44 | 33.42823 | 126.28395 | 3610 ft | 231 kts | 120° |
| 2025-09-08 13:44 | 33.42420 | 126.31945 | 2873 ft | 213 kts | 73° |
| 2025-09-08 13:44 | 33.43076 | 126.33437 | 2592 ft | 192 kts | 59° |
| 2025-09-08 13:45 | 33.44332 | 126.35869 | 2135 ft | 157 kts | 60° |
| 2025-09-08 13:45 | 33.45460 | 126.38058 | 1745 ft | 156 kts | 60° |
| 2025-09-08 13:46 | 33.46574 | 126.40217 | 1363 ft | 153 kts | 61° |
| 2025-09-08 13:47 | 33.48185 | 126.43344 | 814 ft | 143 kts | 60° |
| 2025-09-08 13:47 | 33.49239 | 126.45382 | 406 ft | 146 kts | 59° |
| 2025-09-08 13:48 | 33.50304 | 126.47436 | 104 ft | 144 kts | 59° |
| 2025-09-08 13:48 | 33.50878 | 126.48642 | 92 ft | 29 kts | 79° |
| 2025-09-08 13:48 | 33.50887 | 126.48844 | 89 ft | 20 kts | 90° |
| 2025-09-08 13:49 | 33.50953 | 126.49094 | 89 ft | 16 kts | 65° |
| 2025-09-08 13:49 | 33.51053 | 126.49317 | 90 ft | 11 kts | 91° |
| 2025-09-08 13:50 | 33.50940 | 126.49391 | 93 ft | 8 kts | 187° |
| 2025-09-08 13:51 | 33.50793 | 126.49371 | 93 ft | 3 kts | 183° |
| 2025-09-08 13:51 | 33.50785 | 126.49370 | 94 ft | 0 kts | 182° |